Time;durP1;ratioP1;P1;durP2;ratioP2;P2;SDS_P1;SDS_P2;PMS_P1;PMS_P2;Temp;Humidity;BMP_temperature;BMP_pressure;BME280_temperature;BME280_humidity;BME280_pressure;Samples;Min_cycle;Max_cycle;Signal;HPM_P1;HPM_P2
2021/11/17 02:27:51;;;;;;;39.15;11.43;;;;;;;;;;5021081;28;20041;-54
2021/11/17 02:30:26;;;;;;;39.60;10.23;;;;;;;;;;5006700;28;20037;-54
2021/11/17 02:33:12;;;;;;;43.60;11.52;;;;;;;;;;5026161;28;20037;-53
2021/11/17 02:35:45;;;;;;;39.55;11.95;;;;;;;;;;5007084;28;20053;-50
2021/11/17 02:38:19;;;;;;;37.70;11.70;;;;;;;;;;5004610;28;20041;-54
2021/11/17 02:41:04;;;;;;;38.67;10.60;;;;;;;;;;5007532;28;20034;-53
2021/11/17 02:43:37;;;;;;;36.88;10.65;;;;;;;;;;5003062;28;20038;-56
2021/11/17 02:46:11;;;;;;;40.88;10.20;;;;;;;;;;5011679;28;20053;-58
2021/11/17 02:48:44;;;;;;;33.00;10.05;;;;;;;;;;5024455;28;20038;-57
2021/11/17 02:51:18;;;;;;;39.58;10.75;;;;;;;;;;5027914;28;20037;-55
2021/11/17 02:53:55;;;;;;;38.50;10.32;;;;;;;;;;5024482;28;20112;-54
2021/11/17 02:56:28;;;;;;;36.35;11.18;;;;;;;;;;5006855;28;20042;-55
2021/11/17 02:59:12;;;;;;;40.70;11.20;;;;;;;;;;5003752;28;20057;-55
2021/11/17 03:01:55;;;;;;;38.55;10.20;;;;;;;;;;5033526;28;20045;-53
2021/11/17 03:04:29;;;;;;;34.85;10.93;;;;;;;;;;5019920;28;20045;-53
2021/11/17 03:07:01;;;;;;;32.25;10.32;;;;;;;;;;5005948;28;20030;-52
2021/11/17 03:09:35;;;;;;;31.05;9.70;;;;;;;;;;5003912;28;20130;-54
2021/11/17 03:12:19;;;;;;;37.63;10.57;;;;;;;;;;5029622;28;20184;-53
2021/11/17 03:14:52;;;;;;;34.28;10.65;;;;;;;;;;5020576;28;20171;-55
2021/11/17 03:17:26;;;;;;;37.60;11.05;;;;;;;;;;5005283;28;20042;-53
2021/11/17 03:20:04;;;;;;;34.05;10.63;;;;;;;;;;5002494;28;20046;-53
2021/11/17 03:22:37;;;;;;;34.97;10.23;;;;;;;;;;5005652;28;20096;-55
2021/11/17 03:25:13;;;;;;;33.55;10.32;;;;;;;;;;5004708;28;20042;-57
2021/11/17 03:27:46;;;;;;;31.95;10.60;;;;;;;;;;5012042;28;20048;-55
2021/11/17 03:30:28;;;;;;;35.17;10.50;;;;;;;;;;5000768;28;20128;-54
2021/11/17 03:33:03;;;;;;;35.28;10.70;;;;;;;;;;5008869;28;20057;-54
2021/11/17 03:35:36;;;;;;;38.97;10.82;;;;;;;;;;5022874;28;20074;-56
2021/11/17 03:38:10;;;;;;;32.45;10.25;;;;;;;;;;5025636;28;20048;-57
2021/11/17 03:41:01;;;;;;;39.65;10.77;;;;;;;;;;5022179;28;20041;-52
2021/11/17 03:43:48;;;;;;;37.33;11.05;;;;;;;;;;5002933;28;20054;-54
2021/11/17 03:46:27;;;;;;;36.85;10.68;;;;;;;;;;4985303;28;20165;-56
2021/11/17 03:48:53;;;;;;;;;;;;;;;;;;4985917;28;20042;-53
2021/11/17 03:51:35;;;;;;;31.55;8.70;;;;;;;;;;4981780;28;19917;-52
2021/11/17 03:54:09;;;;;;;34.60;10.90;;;;;;;;;;4982352;28;20045;-49
2021/11/17 03:56:42;;;;;;;41.15;10.57;;;;;;;;;;4983892;28;20157;-52
2021/11/17 03:59:27;;;;;;;41.47;11.05;;;;;;;;;;4986609;28;20139;-51
2021/11/17 04:02:00;;;;;;;31.05;10.25;;;;;;;;;;4980832;28;20038;-52
2021/11/17 04:04:33;;;;;;;37.00;10.23;;;;;;;;;;4986115;28;20061;-54
2021/11/17 04:07:12;;;;;;;37.97;11.07;;;;;;;;;;4983855;28;20046;-52
2021/11/17 04:09:46;;;;;;;31.17;8.95;;;;;;;;;;4985085;28;20093;-56
2021/11/17 04:12:21;;;;;;;30.00;9.05;;;;;;;;;;4990402;28;20041;-55
2021/11/17 04:14:53;;;;;;;41.75;10.80;;;;;;;;;;5007681;28;20092;-54
2021/11/17 04:17:29;;;;;;;33.60;10.07;;;;;;;;;;5001899;28;20045;-52
2021/11/17 04:20:02;;;;;;;36.63;10.35;;;;;;;;;;4987422;28;20046;-50
2021/11/17 04:22:42;;;;;;;34.90;9.95;;;;;;;;;;4982992;28;20069;-56
2021/11/17 04:25:17;;;;;;;34.83;10.13;;;;;;;;;;5003833;28;20056;-53
2021/11/17 04:27:49;;;;;;;38.20;11.32;;;;;;;;;;5000414;28;20062;-56
2021/11/17 04:30:32;;;;;;;36.28;10.15;;;;;;;;;;4986399;28;20061;-54
2021/11/17 04:33:09;;;;;;;36.83;10.32;;;;;;;;;;4983646;28;20116;-57
2021/11/17 04:35:42;;;;;;;36.45;9.88;;;;;;;;;;5003701;28;20042;-50
2021/11/17 04:38:18;;;;;;;40.05;11.20;;;;;;;;;;4997594;28;20046;-52
2021/11/17 04:40:54;;;;;;;39.63;10.48;;;;;;;;;;4984328;28;20123;-54
2021/11/17 04:43:29;;;;;;;38.35;10.25;;;;;;;;;;4981060;28;20050;-53
2021/11/17 04:46:02;;;;;;;40.25;10.95;;;;;;;;;;4988041;28;20058;-56
2021/11/17 04:48:35;;;;;;;36.55;10.52;;;;;;;;;;4998624;28;21418;-57
2021/11/17 04:51:17;;;;;;;40.15;10.13;;;;;;;;;;4984960;28;20042;-53
2021/11/17 04:53:50;;;;;;;34.88;11.10;;;;;;;;;;4982071;28;20049;-55
2021/11/17 04:56:24;;;;;;;35.03;10.38;;;;;;;;;;4985393;28;20034;-56
2021/11/17 04:58:58;;;;;;;43.03;10.63;;;;;;;;;;4999744;28;20054;-54
2021/11/17 05:01:33;;;;;;;36.83;10.50;;;;;;;;;;4993064;28;20119;-56
2021/11/17 05:04:06;;;;;;;39.53;11.50;;;;;;;;;;5016711;28;20037;-55
2021/11/17 05:06:42;;;;;;;42.83;11.40;;;;;;;;;;4984065;28;20085;-54
2021/11/17 05:09:14;;;;;;;42.95;11.32;;;;;;;;;;4983477;28;20030;-54
2021/11/17 05:11:47;;;;;;;40.40;10.65;;;;;;;;;;5004873;28;20160;-56
2021/11/17 05:14:18;;;;;;;35.80;9.68;;;;;;;;;;4999904;28;20050;-55
2021/11/17 05:16:50;;;;;;;34.28;9.88;;;;;;;;;;5001525;28;20128;-53
2021/11/17 05:19:22;;;;;;;35.03;10.25;;;;;;;;;;4988219;28;20104;-52
2021/11/17 05:21:54;;;;;;;34.28;10.20;;;;;;;;;;4984177;28;20050;-54
2021/11/17 05:24:27;;;;;;;38.03;10.77;;;;;;;;;;4987556;28;20034;-52
2021/11/17 05:27:01;;;;;;;32.80;9.82;;;;;;;;;;4984219;28;20046;-54
2021/11/17 05:29:34;;;;;;;36.20;10.27;;;;;;;;;;4984725;28;20045;-52
2021/11/17 05:32:18;;;;;;;42.60;10.48;;;;;;;;;;4983598;28;20046;-50
2021/11/17 05:34:50;;;;;;;34.22;9.23;;;;;;;;;;5002721;28;20038;-55
2021/11/17 05:37:22;;;;;;;33.28;9.05;;;;;;;;;;5001167;28;20123;-57
2021/11/17 05:39:59;;;;;;;41.95;11.35;;;;;;;;;;5005021;28;20029;-56
2021/11/17 05:42:32;;;;;;;35.45;9.43;;;;;;;;;;4993108;28;20046;-58
2021/11/17 05:45:06;;;;;;;39.85;10.35;;;;;;;;;;5007115;28;20038;-56
2021/11/17 05:47:38;;;;;;;40.80;10.15;;;;;;;;;;5002163;28;20038;-54
2021/11/17 05:50:24;;;;;;;33.22;9.88;;;;;;;;;;5022969;28;20046;-51
2021/11/17 05:53:01;;;;;;;35.03;9.05;;;;;;;;;;4998276;28;20042;-55
2021/11/17 05:55:40;;;;;;;34.40;9.90;;;;;;;;;;5002699;28;20034;-56
2021/11/17 05:58:18;;;;;;;42.08;12.85;;;;;;;;;;4999588;28;20045;-54
2021/11/17 06:00:54;;;;;;;34.97;11.13;;;;;;;;;;5004095;28;20049;-54
2021/11/17 06:03:27;;;;;;;35.05;9.88;;;;;;;;;;5022052;28;20483;-53
2021/11/17 06:05:54;;;;;;;36.03;10.68;;;;;;;;;;5026630;28;20033;-55
2021/11/17 06:08:20;;;;;;;42.63;10.93;;;;;;;;;;5024346;28;20127;-55
2021/11/17 06:10:49;;;;;;;35.63;11.38;;;;;;;;;;5023694;28;20045;-52
2021/11/17 06:13:16;;;;;;;34.55;10.38;;;;;;;;;;5016938;28;20037;-53
2021/11/17 06:15:43;;;;;;;32.65;9.32;;;;;;;;;;5021354;28;20033;-52
2021/11/17 06:18:10;;;;;;;30.63;9.07;;;;;;;;;;5018684;28;20097;-56
2021/11/17 06:20:39;;;;;;;36.95;10.27;;;;;;;;;;5021627;28;20044;-51
2021/11/17 06:23:06;;;;;;;31.10;9.85;;;;;;;;;;5017322;28;20056;-52
2021/11/17 06:25:33;;;;;;;41.85;10.30;;;;;;;;;;5023006;28;20047;-49
2021/11/17 06:28:04;;;;;;;41.75;11.38;;;;;;;;;;5015449;28;20037;-54
2021/11/17 06:30:31;;;;;;;37.97;11.68;;;;;;;;;;5019756;28;20034;-54
2021/11/17 06:32:57;;;;;;;39.28;11.50;;;;;;;;;;5017405;28;20053;-56
2021/11/17 06:35:24;;;;;;;43.15;11.52;;;;;;;;;;5021784;28;20128;-56
2021/11/17 06:37:51;;;;;;;36.75;11.02;;;;;;;;;;5016369;28;20049;-54
2021/11/17 06:40:22;;;;;;;34.53;10.00;;;;;;;;;;5022318;28;20053;-57
2021/11/17 06:42:50;;;;;;;37.22;9.45;;;;;;;;;;5015478;28;20123;-54
2021/11/17 06:45:19;;;;;;;40.63;11.27;;;;;;;;;;5040050;28;20067;-54
2021/11/17 06:47:45;;;;;;;;;;;;;;;;;;5020232;28;20041;-55
2021/11/17 06:50:13;;;;;;;37.38;9.55;;;;;;;;;;5034534;28;19921;-51
2021/11/17 06:52:40;;;;;;;37.92;10.95;;;;;;;;;;5019128;28;20060;-52
2021/11/17 06:55:07;;;;;;;46.53;11.95;;;;;;;;;;5020491;28;20041;-53
2021/11/17 06:57:34;;;;;;;35.45;10.50;;;;;;;;;;5026015;28;20029;-53
2021/11/17 07:00:03;;;;;;;37.95;10.40;;;;;;;;;;5021586;28;20041;-56
2021/11/17 07:02:31;;;;;;;41.70;10.90;;;;;;;;;;5025754;28;20122;-55
2021/11/17 07:04:58;;;;;;;34.30;10.20;;;;;;;;;;5011506;28;20042;-55
2021/11/17 07:07:24;;;;;;;43.50;10.73;;;;;;;;;;5005382;28;20040;-54
2021/11/17 07:09:54;;;;;;;33.42;10.85;;;;;;;;;;5014191;28;20029;-56
2021/11/17 07:12:20;;;;;;;32.97;10.27;;;;;;;;;;5018711;28;20041;-56
2021/11/17 07:14:47;;;;;;;36.65;10.40;;;;;;;;;;5007000;28;20119;-52
2021/11/17 07:17:14;;;;;;;37.58;10.38;;;;;;;;;;5023273;28;20144;-54
2021/11/17 07:19:43;;;;;;;34.80;9.88;;;;;;;;;;5021262;28;20045;-52
2021/11/17 07:22:10;;;;;;;39.08;11.00;;;;;;;;;;5025548;28;20037;-52
2021/11/17 07:24:38;;;;;;;42.00;11.05;;;;;;;;;;5018595;28;20041;-54
2021/11/17 07:27:05;;;;;;;37.72;11.50;;;;;;;;;;5003558;28;20052;-55
2021/11/17 07:29:33;;;;;;;41.38;11.20;;;;;;;;;;5002853;28;20052;-53
2021/11/17 07:32:00;;;;;;;39.22;10.60;;;;;;;;;;5004575;28;20053;-57
2021/11/17 07:34:26;;;;;;;35.92;10.20;;;;;;;;;;5017029;28;20057;-54
2021/11/17 07:36:54;;;;;;;34.15;10.63;;;;;;;;;;5019198;28;20037;-57
2021/11/17 07:39:22;;;;;;;31.53;10.60;;;;;;;;;;5026050;28;20048;-57
2021/11/17 07:41:50;;;;;;;39.28;10.50;;;;;;;;;;4999765;28;20058;-56
2021/11/17 07:44:17;;;;;;;36.13;11.20;;;;;;;;;;4984454;28;20049;-57
2021/11/17 07:46:44;;;;;;;37.72;10.88;;;;;;;;;;4983608;28;20065;-56
2021/11/17 07:49:12;;;;;;;38.53;11.30;;;;;;;;;;4984859;28;20035;-55
2021/11/17 07:51:38;;;;;;;39.73;11.47;;;;;;;;;;4982713;28;20096;-58
2021/11/17 07:54:06;;;;;;;37.88;10.50;;;;;;;;;;4987024;28;20053;-56
2021/11/17 07:56:34;;;;;;;40.88;10.98;;;;;;;;;;4982002;28;20042;-54
2021/11/17 07:59:00;;;;;;;41.60;10.23;;;;;;;;;;4986150;28;20042;-54
2021/11/17 08:01:27;;;;;;;32.78;9.57;;;;;;;;;;4982634;28;20038;-53
2021/11/17 08:03:53;;;;;;;38.90;11.07;;;;;;;;;;4986102;28;20058;-52
2021/11/17 08:06:22;;;;;;;40.40;11.93;;;;;;;;;;4983243;28;20049;-55
2021/11/17 08:08:49;;;;;;;44.33;11.32;;;;;;;;;;4985234;28;20038;-56
2021/11/17 08:11:17;;;;;;;41.00;10.55;;;;;;;;;;5002932;28;20058;-57
2021/11/17 08:13:43;;;;;;;38.17;10.95;;;;;;;;;;5003250;28;20085;-55
2021/11/17 08:16:10;;;;;;;36.53;10.93;;;;;;;;;;4986210;28;20050;-54
2021/11/17 08:18:38;;;;;;;42.22;11.90;;;;;;;;;;4982654;28;20053;-55
2021/11/17 08:21:06;;;;;;;38.00;10.18;;;;;;;;;;4984229;28;20041;-55
2021/11/17 08:23:33;;;;;;;42.15;11.40;;;;;;;;;;4981827;28;20042;-58
2021/11/17 08:25:59;;;;;;;43.20;11.25;;;;;;;;;;4986396;28;20049;-55
2021/11/17 08:28:27;;;;;;;40.63;12.23;;;;;;;;;;4983551;28;20113;-56
2021/11/17 08:30:54;;;;;;;45.73;12.27;;;;;;;;;;4985777;28;20161;-54
2021/11/17 08:33:21;;;;;;;36.70;10.00;;;;;;;;;;4988379;28;20042;-57
2021/11/17 08:35:50;;;;;;;46.53;11.57;;;;;;;;;;5003433;28;20037;-55
2021/11/17 08:38:18;;;;;;;47.55;13.00;;;;;;;;;;5002127;28;20037;-57
2021/11/17 08:40:47;;;;;;;44.58;11.82;;;;;;;;;;5006355;28;20034;-57
2021/11/17 08:43:14;;;;;;;40.85;12.32;;;;;;;;;;5002869;28;20042;-56
2021/11/17 08:45:42;;;;;;;46.25;12.27;;;;;;;;;;5004741;28;20022;-56
2021/11/17 08:48:10;;;;;;;51.40;14.35;;;;;;;;;;5002853;28;20073;-54
2021/11/17 08:50:37;;;;;;;48.38;13.70;;;;;;;;;;5003983;28;20041;-56
2021/11/17 08:53:04;;;;;;;55.45;15.32;;;;;;;;;;5004299;28;20127;-54
2021/11/17 08:55:31;;;;;;;52.13;14.05;;;;;;;;;;5005710;28;20034;-56
2021/11/17 08:57:59;;;;;;;59.63;13.32;;;;;;;;;;5019967;28;20037;-54
2021/11/17 09:00:26;;;;;;;53.87;14.17;;;;;;;;;;5003941;28;20122;-56
2021/11/17 09:02:55;;;;;;;67.30;14.95;;;;;;;;;;5003481;28;20034;-54
2021/11/17 09:05:21;;;;;;;;;;;;;;;;;;5020319;28;20037;-55
2021/11/17 09:07:48;;;;;;;60.28;13.05;;;;;;;;;;5024171;28;20024;-54
2021/11/17 09:10:16;;;;;;;57.75;14.93;;;;;;;;;;5021082;28;20056;-52
2021/11/17 09:12:43;;;;;;;41.67;11.38;;;;;;;;;;5012357;28;20056;-56
2021/11/17 09:15:11;;;;;;;52.05;13.82;;;;;;;;;;5010594;28;20038;-54
2021/11/17 09:17:39;;;;;;;43.05;12.38;;;;;;;;;;5004808;28;20037;-58
2021/11/17 09:20:08;;;;;;;54.80;15.13;;;;;;;;;;5000255;28;20030;-55
2021/11/17 09:22:34;;;;;;;42.90;10.70;;;;;;;;;;5004125;28;20119;-54
2021/11/17 09:25:01;;;;;;;53.35;14.43;;;;;;;;;;5003253;28;20057;-52
2021/11/17 09:27:28;;;;;;;47.22;14.45;;;;;;;;;;5020883;28;20042;-56
2021/11/17 09:29:56;;;;;;;51.35;13.48;;;;;;;;;;5000806;28;20034;-54
2021/11/17 09:32:22;;;;;;;51.50;14.30;;;;;;;;;;5004133;28;20112;-54
2021/11/17 09:34:49;;;;;;;39.55;11.40;;;;;;;;;;5035624;28;20053;-55
2021/11/17 09:37:17;;;;;;;46.50;13.68;;;;;;;;;;5006948;28;20041;-54
2021/11/17 09:39:46;;;;;;;50.58;13.27;;;;;;;;;;5003387;28;20092;-56
2021/11/17 09:42:13;;;;;;;44.38;13.95;;;;;;;;;;5008762;28;20062;-58
2021/11/17 09:44:41;;;;;;;53.65;14.88;;;;;;;;;;5007354;28;20038;-54
2021/11/17 09:47:10;;;;;;;41.05;13.52;;;;;;;;;;5006726;28;20102;-57
2021/11/17 09:49:39;;;;;;;48.80;13.25;;;;;;;;;;5006751;28;20041;-55
2021/11/17 09:52:09;;;;;;;57.88;14.45;;;;;;;;;;5018615;28;20050;-52
2021/11/17 09:54:39;;;;;;;52.70;14.80;;;;;;;;;;5023374;28;20061;-54
2021/11/17 09:57:08;;;;;;;52.88;14.50;;;;;;;;;;5021162;28;20099;-56
2021/11/17 09:59:37;;;;;;;53.50;14.15;;;;;;;;;;5007136;28;20050;-56
2021/11/17 10:02:06;;;;;;;63.63;14.93;;;;;;;;;;5016560;28;20045;-52
2021/11/17 10:04:36;;;;;;;58.67;16.40;;;;;;;;;;5027262;28;20065;-55
2021/11/17 10:07:32;;;;;;;51.83;13.77;;;;;;;;;;5023830;28;20045;-53
2021/11/17 10:10:17;;;;;;;53.75;15.32;;;;;;;;;;5027824;28;20044;-53
2021/11/17 10:15:33;;;;;;;;;;;;;;;;;;5003961;28;20044;-51
2021/11/17 10:18:05;;;;;;;47.17;12.57;;;;;;;;;;5018433;28;19971;-55
2021/11/17 10:20:35;;;;;;;53.40;14.48;;;;;;;;;;5025002;28;20037;-53
2021/11/17 10:23:16;;;;;;;56.35;14.65;;;;;;;;;;5024374;28;20053;-55
2021/11/17 10:25:45;;;;;;;52.65;13.50;;;;;;;;;;5004930;28;20049;-57
2021/11/17 10:28:11;;;;;;;;;;;;;;;;;;5021178;28;20176;-53
2021/11/17 10:30:50;;;;;;;45.97;11.90;;;;;;;;;;5004666;28;19944;-56
2021/11/17 10:33:18;;;;;;;60.88;14.93;;;;;;;;;;5001950;28;20056;-52
2021/11/17 10:35:45;;;;;;;45.77;13.60;;;;;;;;;;5004994;28;20045;-52
2021/11/17 10:38:18;;;;;;;52.45;14.73;;;;;;;;;;5012750;28;20030;-57
2021/11/17 10:40:49;;;;;;;54.97;15.07;;;;;;;;;;5024540;28;20061;-55
2021/11/17 10:43:17;;;;;;;49.53;14.48;;;;;;;;;;5029828;28;20045;-56
2021/11/17 10:45:46;;;;;;;54.03;13.77;;;;;;;;;;5006794;28;20041;-56
2021/11/17 10:48:12;;;;;;;;;;;;;;;;;;5009479;28;20085;-56
2021/11/17 10:50:40;;;;;;;45.67;12.27;;;;;;;;;;5058126;28;19973;-53
2021/11/17 10:53:07;;;;;;;53.90;14.63;;;;;;;;;;5033768;28;20050;-50
2021/11/17 10:55:35;;;;;;;48.85;13.93;;;;;;;;;;5006885;28;20051;-55
2021/11/17 10:58:04;;;;;;;46.47;13.55;;;;;;;;;;5004438;28;20038;-54
2021/11/17 11:00:30;;;;;;;;;;;;;;;;;;5006447;28;20042;-53
2021/11/17 11:02:57;;;;;;;42.72;12.30;;;;;;;;;;5010881;28;19933;-54
2021/11/17 11:05:26;;;;;;;48.10;13.20;;;;;;;;;;5025916;28;20037;-57
2021/11/17 11:07:54;;;;;;;43.03;12.02;;;;;;;;;;5026374;28;20051;-56
2021/11/17 11:10:24;;;;;;;45.20;13.27;;;;;;;;;;5022986;28;20082;-53
2021/11/17 11:12:52;;;;;;;44.53;13.30;;;;;;;;;;5005890;28;20041;-51
2021/11/17 11:15:22;;;;;;;43.67;13.07;;;;;;;;;;5019834;28;20081;-56
2021/11/17 11:18:10;;;;;;;45.67;13.18;;;;;;;;;;5024742;28;20052;-53
2021/11/17 11:20:45;;;;;;;49.80;14.57;;;;;;;;;;5021349;28;20055;-50
2021/11/17 11:23:17;;;;;;;44.95;13.07;;;;;;;;;;5023861;28;20127;-58
2021/11/17 11:25:48;;;;;;;46.95;13.48;;;;;;;;;;5020803;28;20135;-55
2021/11/17 11:28:23;;;;;;;52.92;15.15;;;;;;;;;;5006132;28;20042;-53
2021/11/17 11:31:12;;;;;;;46.13;13.50;;;;;;;;;;5019510;28;20049;-55
2021/11/17 11:33:39;;;;;;;42.83;12.77;;;;;;;;;;5003035;28;20042;-52
2021/11/17 11:36:36;;;;;;;45.20;14.57;;;;;;;;;;5002435;28;20045;-58
2021/11/17 11:39:19;;;;;;;46.58;13.90;;;;;;;;;;5022423;28;20065;-57
2021/11/17 11:42:04;;;;;;;45.72;14.65;;;;;;;;;;4993790;28;20050;-55
2021/11/17 11:44:33;;;;;;;51.15;16.00;;;;;;;;;;5002295;28;20046;-56
2021/11/17 11:47:14;;;;;;;48.88;13.68;;;;;;;;;;5005605;28;20038;-57
2021/11/17 11:49:44;;;;;;;46.05;14.05;;;;;;;;;;5018425;28;20029;-57
2021/11/17 11:52:13;;;;;;;42.80;14.40;;;;;;;;;;5006383;28;20044;-55
2021/11/17 11:55:11;;;;;;;51.95;16.25;;;;;;;;;;5024290;28;20091;-58
2021/11/17 11:57:39;;;;;;;49.58;14.80;;;;;;;;;;4924925;29;20047;-55
2021/11/17 12:00:09;;;;;;;54.60;14.82;;;;;;;;;;4989317;28;20042;-55
2021/11/17 12:02:37;;;;;;;50.92;13.18;;;;;;;;;;5002384;28;20049;-56
2021/11/17 12:05:08;;;;;;;48.92;14.40;;;;;;;;;;5004425;28;20045;-57
2021/11/17 12:07:39;;;;;;;47.35;13.43;;;;;;;;;;5021723;28;20106;-57
2021/11/17 12:10:08;;;;;;;54.47;13.25;;;;;;;;;;5042641;28;20053;-56
2021/11/17 12:12:36;;;;;;;45.08;13.65;;;;;;;;;;5016762;28;20061;-54
2021/11/17 12:15:14;;;;;;;45.33;14.48;;;;;;;;;;5004275;28;20052;-56
2021/11/17 12:17:41;;;;;;;38.33;13.18;;;;;;;;;;5001479;28;20112;-57
2021/11/17 12:20:22;;;;;;;45.72;13.40;;;;;;;;;;5004110;28;20058;-55
2021/11/17 12:22:50;;;;;;;37.55;11.10;;;;;;;;;;5020192;28;20045;-56
2021/11/17 12:25:19;;;;;;;38.17;12.40;;;;;;;;;;5004050;28;20053;-53
2021/11/17 12:27:45;;;;;;;36.85;12.05;;;;;;;;;;5002378;28;20086;-55
2021/11/17 12:30:19;;;;;;;43.42;14.52;;;;;;;;;;5004728;28;20052;-55
2021/11/17 12:32:50;;;;;;;41.60;13.20;;;;;;;;;;5014741;28;20037;-56
2021/11/17 12:35:22;;;;;;;45.83;13.10;;;;;;;;;;5025327;28;20053;-51
2021/11/17 12:37:53;;;;;;;54.47;13.50;;;;;;;;;;5021790;28;20033;-57
2021/11/17 12:40:32;;;;;;;40.95;10.82;;;;;;;;;;5024716;28;20081;-57
2021/11/17 12:42:59;;;;;;;40.47;10.73;;;;;;;;;;5009641;28;20030;-57
2021/11/17 12:45:29;;;;;;;34.58;10.68;;;;;;;;;;5021155;28;20048;-55
2021/11/17 12:47:57;;;;;;;28.40;9.70;;;;;;;;;;5010947;28;20036;-55
2021/11/17 12:50:28;;;;;;;32.40;9.60;;;;;;;;;;5025260;28;20060;-55
2021/11/17 12:52:56;;;;;;;25.05;8.48;;;;;;;;;;5013969;28;20104;-56
2021/11/17 12:55:24;;;;;;;28.98;8.60;;;;;;;;;;5018184;28;20044;-54
2021/11/17 12:57:52;;;;;;;29.83;9.52;;;;;;;;;;5021158;28;20042;-53
2021/11/17 13:00:45;;;;;;;34.20;8.50;;;;;;;;;;5024532;28;20052;-55
2021/11/17 13:03:23;;;;;;;19.70;7.25;;;;;;;;;;5018972;28;20056;-58
2021/11/17 13:06:01;;;;;;;25.10;7.82;;;;;;;;;;5023626;28;20037;-55
2021/11/17 13:08:32;;;;;;;29.30;6.95;;;;;;;;;;5020603;28;20046;-56
2021/11/17 13:11:12;;;;;;;27.80;6.45;;;;;;;;;;5028768;28;20051;-55
2021/11/17 13:13:44;;;;;;;26.85;6.47;;;;;;;;;;5007191;28;20049;-56
2021/11/17 13:16:13;;;;;;;27.23;6.45;;;;;;;;;;5007845;28;20041;-53
2021/11/17 13:18:50;;;;;;;18.27;5.63;;;;;;;;;;5009165;28;20034;-53
2021/11/17 13:21:28;;;;;;;28.00;5.05;;;;;;;;;;5044823;28;20097;-57
2021/11/17 13:24:02;;;;;;;52.20;5.82;;;;;;;;;;5023216;28;20062;-53
2021/11/17 13:26:33;;;;;;;17.40;4.32;;;;;;;;;;5026479;28;20033;-55
2021/11/17 13:29:17;;;;;;;45.50;4.53;;;;;;;;;;5023296;28;20085;-54
2021/11/17 13:31:45;;;;;;;16.50;3.72;;;;;;;;;;5006816;28;20046;-53
2021/11/17 13:34:12;;;;;;;17.00;2.90;;;;;;;;;;5009865;28;20041;-52
2021/11/17 13:36:43;;;;;;;17.77;2.90;;;;;;;;;;5026360;28;20123;-54
2021/11/17 13:39:10;;;;;;;37.72;2.90;;;;;;;;;;5022918;28;20189;-58
2021/11/17 13:41:37;;;;;;;13.45;2.40;;;;;;;;;;5026344;28;20053;-57
2021/11/17 13:44:05;;;;;;;18.33;2.80;;;;;;;;;;5023427;28;20045;-59
2021/11/17 13:46:31;;;;;;;13.60;2.17;;;;;;;;;;5023612;28;20357;-59
2021/11/17 13:49:01;;;;;;;17.75;2.10;;;;;;;;;;5005692;28;20133;-57
2021/11/17 13:51:28;;;;;;;14.00;2.40;;;;;;;;;;5002155;28;20037;-55
2021/11/17 13:53:56;;;;;;;18.95;2.10;;;;;;;;;;5006106;28;20045;-53
2021/11/17 13:56:24;;;;;;;11.68;1.73;;;;;;;;;;5019689;28;20097;-55
2021/11/17 13:58:51;;;;;;;13.35;1.88;;;;;;;;;;5025609;28;20056;-54
2021/11/17 14:01:20;;;;;;;11.68;1.85;;;;;;;;;;5008638;28;20077;-53
2021/11/17 14:03:46;;;;;;;27.40;2.70;;;;;;;;;;5005930;28;20033;-56
2021/11/17 14:06:14;;;;;;;10.82;1.52;;;;;;;;;;5003609;28;20123;-57
2021/11/17 14:08:41;;;;;;;6.32;1.42;;;;;;;;;;5008132;28;20045;-58
2021/11/17 14:11:11;;;;;;;14.10;1.67;;;;;;;;;;5012560;28;20049;-57
2021/11/17 14:13:37;;;;;;;27.65;2.13;;;;;;;;;;5043702;28;20054;-55
2021/11/17 14:16:05;;;;;;;19.88;1.70;;;;;;;;;;5034607;28;20038;-57
2021/11/17 14:18:31;;;;;;;17.33;2.10;;;;;;;;;;5006570;28;20033;-56
2021/11/17 14:20:59;;;;;;;53.97;3.13;;;;;;;;;;5007044;28;20070;-58
2021/11/17 14:23:26;;;;;;;20.42;1.90;;;;;;;;;;5026428;28;20132;-58
2021/11/17 14:25:54;;;;;;;21.35;2.35;;;;;;;;;;5020370;28;20048;-56
2021/11/17 14:28:23;;;;;;;17.10;1.85;;;;;;;;;;5006544;28;20049;-56
2021/11/17 14:30:52;;;;;;;19.38;2.55;;;;;;;;;;5022176;28;20119;-58
2021/11/17 14:33:20;;;;;;;17.10;3.20;;;;;;;;;;5006152;28;20033;-56
2021/11/17 14:35:47;;;;;;;14.38;3.47;;;;;;;;;;5007327;28;20034;-56
2021/11/17 14:38:17;;;;;;;38.20;2.53;;;;;;;;;;5021642;28;20045;-56
2021/11/17 14:40:48;;;;;;;49.97;4.00;;;;;;;;;;5028355;28;20033;-56
2021/11/17 14:43:16;;;;;;;21.55;2.25;;;;;;;;;;5022853;28;20078;-58
2021/11/17 14:45:45;;;;;;;11.50;1.73;;;;;;;;;;5009923;28;20107;-57
2021/11/17 14:48:12;;;;;;;19.40;2.00;;;;;;;;;;5002590;28;20042;-58
2021/11/17 14:50:39;;;;;;;18.45;1.88;;;;;;;;;;5006195;28;20100;-57
2021/11/17 14:53:06;;;;;;;27.40;2.80;;;;;;;;;;5014462;28;20044;-58
2021/11/17 14:55:33;;;;;;;10.50;1.77;;;;;;;;;;5026749;28;20048;-57
2021/11/17 14:58:00;;;;;;;12.13;1.88;;;;;;;;;;5014029;28;20042;-58
2021/11/17 15:00:28;;;;;;;25.90;2.55;;;;;;;;;;5005356;28;20042;-58
2021/11/17 15:02:56;;;;;;;10.60;2.58;;;;;;;;;;5024059;28;20049;-56
2021/11/17 15:05:25;;;;;;;21.52;2.47;;;;;;;;;;5018289;28;20041;-53
2021/11/17 15:07:52;;;;;;;15.65;1.77;;;;;;;;;;5032556;28;20057;-54
2021/11/17 15:10:20;;;;;;;19.83;2.15;;;;;;;;;;5021118;28;20041;-57
2021/11/17 15:12:47;;;;;;;12.43;1.80;;;;;;;;;;5020713;28;20118;-57
2021/11/17 15:15:17;;;;;;;11.98;1.55;;;;;;;;;;5023290;28;20056;-56
2021/11/17 15:17:44;;;;;;;11.27;1.85;;;;;;;;;;5021994;28;20053;-56
2021/11/17 15:20:14;;;;;;;36.30;2.67;;;;;;;;;;5032702;28;20046;-58
2021/11/17 15:22:42;;;;;;;14.20;2.00;;;;;;;;;;5023016;28;20061;-57
2021/11/17 15:25:08;;;;;;;28.70;1.88;;;;;;;;;;5012244;28;20066;-55
2021/11/17 15:27:38;;;;;;;18.30;1.77;;;;;;;;;;5023240;28;20056;-55
2021/11/17 15:30:09;;;;;;;16.63;2.15;;;;;;;;;;5015245;28;20098;-57
2021/11/17 15:32:36;;;;;;;13.48;1.33;;;;;;;;;;5037672;28;20029;-57
2021/11/17 15:35:03;;;;;;;16.83;2.60;;;;;;;;;;5040456;28;20049;-55
2021/11/17 15:37:30;;;;;;;12.38;2.20;;;;;;;;;;5014961;28;20135;-56
2021/11/17 15:39:57;;;;;;;11.10;1.83;;;;;;;;;;5040940;28;20050;-54
2021/11/17 15:42:23;;;;;;;15.82;2.00;;;;;;;;;;5014598;28;20122;-52
2021/11/17 15:44:50;;;;;;;16.80;2.15;;;;;;;;;;5017798;28;20046;-57
2021/11/17 15:47:17;;;;;;;6.65;1.80;;;;;;;;;;5015455;28;20048;-54
2021/11/17 15:49:44;;;;;;;12.52;1.95;;;;;;;;;;5021389;28;20049;-57
2021/11/17 15:52:11;;;;;;;13.43;1.85;;;;;;;;;;5033988;28;20049;-57
2021/11/17 15:54:39;;;;;;;7.93;1.92;;;;;;;;;;5013411;28;20049;-55
2021/11/17 15:57:06;;;;;;;13.53;2.00;;;;;;;;;;5027976;28;20100;-58
2021/11/17 15:59:33;;;;;;;7.50;1.67;;;;;;;;;;5012186;28;20342;-54
2021/11/17 16:02:00;;;;;;;15.48;2.08;;;;;;;;;;5035006;28;20056;-55
2021/11/17 16:04:27;;;;;;;7.85;2.33;;;;;;;;;;5012947;28;20059;-55
2021/11/17 16:06:56;;;;;;;16.27;2.25;;;;;;;;;;5012559;28;20044;-54
2021/11/17 16:09:26;;;;;;;8.48;1.77;;;;;;;;;;5014252;28;20115;-55
2021/11/17 16:11:56;;;;;;;11.77;2.17;;;;;;;;;;5021022;28;20123;-58
2021/11/17 16:14:23;;;;;;;13.50;1.80;;;;;;;;;;5020883;28;20049;-57
2021/11/17 16:16:49;;;;;;;11.00;1.75;;;;;;;;;;5027477;28;20065;-58
2021/11/17 16:19:18;;;;;;;10.38;1.90;;;;;;;;;;5041480;28;20052;-57
2021/11/17 16:21:45;;;;;;;13.77;1.92;;;;;;;;;;5016570;28;20073;-58
2021/11/17 16:26:57;;;;;;;12.70;1.77;;;;;;;;;;5028570;28;20033;-58
2021/11/17 16:29:24;;;;;;;12.77;1.83;;;;;;;;;;5019734;28;20037;-56
2021/11/17 16:31:51;;;;;;;7.68;1.90;;;;;;;;;;5036274;28;20046;-57
2021/11/17 16:34:17;;;;;;;12.63;1.92;;;;;;;;;;5017745;28;20130;-55
2021/11/17 16:36:45;;;;;;;15.57;3.83;;;;;;;;;;5016212;28;20048;-57
2021/11/17 16:39:14;;;;;;;16.98;5.60;;;;;;;;;;5019333;28;20041;-52
2021/11/17 16:41:41;;;;;;;20.92;4.53;;;;;;;;;;5015487;28;20033;-55
2021/11/17 16:44:09;;;;;;;9.95;2.80;;;;;;;;;;5019391;28;20049;-51
2021/11/17 16:46:39;;;;;;;13.43;2.70;;;;;;;;;;5013327;28;20172;-54
2021/11/17 16:49:06;;;;;;;12.45;2.13;;;;;;;;;;5017633;28;20046;-57
2021/11/17 16:51:33;;;;;;;11.23;2.13;;;;;;;;;;5035733;28;20044;-54
2021/11/17 16:54:00;;;;;;;10.57;1.60;;;;;;;;;;5018850;28;20139;-55
2021/11/17 16:56:26;;;;;;;15.10;2.30;;;;;;;;;;5021921;28;20044;-57
2021/11/17 16:58:53;;;;;;;12.05;2.17;;;;;;;;;;5014976;28;20168;-55
2021/11/17 17:01:21;;;;;;;13.15;2.13;;;;;;;;;;5018409;28;20052;-55
2021/11/17 17:03:48;;;;;;;;;;;;;;;;;;5017405;28;20103;-55
2021/11/17 17:06:15;;;;;;;7.53;1.73;;;;;;;;;;5013833;28;19928;-55
2021/11/17 17:08:42;;;;;;;10.27;2.07;;;;;;;;;;5014698;28;20401;-57
2021/11/17 17:11:09;;;;;;;11.57;2.20;;;;;;;;;;5017911;28;20293;-55
2021/11/17 17:13:35;;;;;;;10.23;2.20;;;;;;;;;;5017103;28;20030;-54
2021/11/17 17:16:02;;;;;;;11.98;2.13;;;;;;;;;;5018622;28;20112;-57
2021/11/17 17:18:30;;;;;;;10.73;2.35;;;;;;;;;;5015879;28;20049;-52